Wabasso, Minnesota
Current Conditions -  °F | °C
As of 1:53 AM on Thursday 23 Oct 2014 (Local Time) from KRWF Reporting Station
Overcast Overcast  
Wind Chill: 57°   Ceiling: 4600
Heat Index: 57°   Visibility: 10mi
Dew Point: 55°   Wind: 8mph
Humidity: 93%   Direction: 240°WSW
Pressure: 29.98"   Gusts: NA
Location:  44.4°N, 95.26°W
Report Text: KRWF 230653Z AUTO 24007KT 10SM OVC046 14/13 A2998 RMK AO2 SLP150 T01390128
Loading
Personal Weather Stations






























Interactive Weather Map
Tropical Storm Tracking
New forecast layout! Learn more

10-Day Weather Forecast

Advertisements
Track Severe Weather on mobile